Time;durP1;ratioP1;P1;durP2;ratioP2;P2;SDS_P1;SDS_P2;PMS_P1;PMS_P2;Temp;Humidity;BMP_temperature;BMP_pressure;BME280_temperature;BME280_humidity;BME280_pressure;Samples;Min_cycle;Max_cycle;Signal;HPM_P1;HPM_P2
2022/08/19 00:01:54;;;;;;;3.58;3.38;;;26.80;99.90;;;;;;5067666;28;20225;-43
2022/08/19 00:04:24;;;;;;;4.10;3.70;;;26.70;99.90;;;;;;5063550;28;20661;-41
2022/08/19 00:06:53;;;;;;;4.65;3.75;;;26.70;99.90;;;;;;5065542;28;20614;-42
2022/08/19 00:09:22;;;;;;;3.88;3.58;;;26.70;99.90;;;;;;5067108;28;20280;-45
2022/08/19 00:11:49;;;;;;;3.42;3.22;;;26.60;99.90;;;;;;5065730;28;20259;-42
2022/08/19 00:14:18;;;;;;;3.72;3.42;;;26.60;99.90;;;;;;5067911;28;20284;-44
2022/08/19 00:16:47;;;;;;;3.30;3.10;;;26.60;99.90;;;;;;5065601;28;20202;-42
2022/08/19 00:19:14;;;;;;;3.72;3.22;;;26.60;99.90;;;;;;5067780;28;20197;-45
2022/08/19 00:21:42;;;;;;;3.72;3.42;;;26.60;99.90;;;;;;5065883;28;20247;-44
2022/08/19 00:24:12;;;;;;;4.07;3.65;;;26.60;99.90;;;;;;5066383;28;20193;-44
2022/08/19 00:26:40;;;;;;;3.65;3.35;;;26.50;99.90;;;;;;5065786;28;20220;-42
2022/08/19 00:29:09;;;;;;;3.67;3.45;;;26.50;99.90;;;;;;5066256;28;20197;-41
2022/08/19 00:31:36;;;;;;;4.00;3.60;;;26.40;99.90;;;;;;5062413;28;20208;-44
2022/08/19 00:34:04;;;;;;;3.70;3.35;;;26.40;99.90;;;;;;5067103;28;20201;-47
2022/08/19 00:36:32;;;;;;;3.88;3.58;;;26.40;99.90;;;;;;5063505;28;20189;-46
2022/08/19 00:39:00;;;;;;;3.92;3.63;;;26.30;99.90;;;;;;5066400;28;20752;-43
2022/08/19 00:41:29;;;;;;;6.70;4.28;;;26.30;99.90;;;;;;5068112;28;20253;-43
2022/08/19 00:44:08;;;;;;;4.28;3.97;;;26.30;99.90;;;;;;5064493;28;20237;-42
2022/08/19 00:46:37;;;;;;;3.90;3.60;;;26.30;99.90;;;;;;5062986;28;20321;-42
2022/08/19 00:49:14;;;;;;;4.30;3.92;;;26.20;99.90;;;;;;5063173;28;20296;-46
2022/08/19 00:51:43;;;;;;;5.10;3.80;;;26.20;99.90;;;;;;5064014;28;20232;-45
2022/08/19 00:54:10;;;;;;;4.80;4.30;;;26.20;99.90;;;;;;5064767;28;20186;-42
2022/08/19 00:56:39;;;;;;;4.22;3.92;;;26.20;99.90;;;;;;5059644;28;20674;-41
2022/08/19 00:59:08;;;;;;;6.82;4.88;;;26.20;99.90;;;;;;5063109;28;20202;-46
2022/08/19 01:01:36;;;;;;;5.13;4.57;;;26.10;99.90;;;;;;5065139;28;20198;-47
2022/08/19 01:04:03;;;;;;;3.92;3.63;;;26.10;99.90;;;;;;5062530;28;20221;-45
2022/08/19 01:06:32;;;;;;;5.85;4.22;;;26.10;99.90;;;;;;5064128;28;20280;-48
2022/08/19 01:08:59;;;;;;;4.18;3.88;;;26.00;99.90;;;;;;5064441;28;20202;-44
2022/08/19 01:11:27;;;;;;;5.50;4.53;;;26.10;99.90;;;;;;5065352;28;20676;-41
2022/08/19 01:13:56;;;;;;;4.78;4.38;;;26.00;99.90;;;;;;5063616;28;20316;-46
2022/08/19 01:16:26;;;;;;;5.32;4.35;;;26.00;99.90;;;;;;5060585;28;20668;-41
2022/08/19 01:18:53;;;;;;;4.07;3.78;;;26.00;99.90;;;;;;5064169;28;20222;-42
2022/08/19 01:21:29;;;;;;;4.18;3.88;;;25.90;99.90;;;;;;5069858;28;20228;-41
2022/08/19 01:23:58;;;;;;;4.72;4.20;;;25.90;99.90;;;;;;5071218;28;20751;-43
2022/08/19 01:26:26;;;;;;;4.38;3.92;;;25.90;99.90;;;;;;5071075;28;20215;-46
2022/08/19 01:28:58;;;;;;;3.63;3.40;;;25.90;99.90;;;;;;5067634;28;20225;-41
2022/08/19 01:31:30;;;;;;;4.45;4.15;;;25.90;99.90;;;;;;5069111;28;20201;-41
2022/08/19 01:33:58;;;;;;;4.25;3.92;;;25.80;99.90;;;;;;5068470;28;20189;-41
2022/08/19 01:36:29;;;;;;;3.65;3.38;;;25.80;99.90;;;;;;5068758;28;20229;-40
2022/08/19 01:38:59;;;;;;;3.35;3.13;;;25.80;99.90;;;;;;5069906;28;20276;-41
2022/08/19 01:41:26;;;;;;;3.63;3.38;;;25.70;99.90;;;;;;5068104;28;20661;-40
2022/08/19 01:43:55;;;;;;;3.58;3.28;;;25.70;99.90;;;;;;5065137;28;20711;-42
2022/08/19 01:46:23;;;;;;;4.60;4.20;;;25.70;99.90;;;;;;5067404;28;20251;-41
2022/08/19 01:48:50;;;;;;;3.75;3.45;;;25.80;99.90;;;;;;5067872;28;20285;-43
2022/08/19 01:51:17;;;;;;;4.88;4.30;;;25.80;99.90;;;;;;5068667;28;20225;-41
2022/08/19 01:53:48;;;;;;;5.70;3.70;;;25.80;99.90;;;;;;5067848;28;20193;-41
2022/08/19 01:56:17;;;;;;;4.22;3.92;;;25.80;99.90;;;;;;5063087;28;20656;-42
2022/08/19 01:58:50;;;;;;;4.20;3.80;;;25.80;99.90;;;;;;5066666;28;20561;-41
2022/08/19 02:01:17;;;;;;;4.20;3.80;;;25.70;99.90;;;;;;5067041;28;20270;-41
2022/08/19 02:03:45;;;;;;;4.07;3.70;;;25.70;99.90;;;;;;5067063;28;20744;-42
2022/08/19 02:06:13;;;;;;;3.80;3.50;;;25.70;99.90;;;;;;5066395;28;20197;-40
2022/08/19 02:08:41;;;;;;;4.05;3.65;;;25.70;99.90;;;;;;5065908;28;20303;-41
2022/08/19 02:11:08;;;;;;;4.45;4.10;;;25.70;99.90;;;;;;5082428;28;20269;-45
2022/08/19 02:13:36;;;;;;;4.78;4.38;;;25.70;99.90;;;;;;5066237;28;20338;-43
2022/08/19 02:16:04;;;;;;;4.05;3.70;;;25.70;99.90;;;;;;5067727;28;20189;-47
2022/08/19 02:18:31;;;;;;;3.88;3.58;;;25.70;99.90;;;;;;5066643;28;20304;-44
2022/08/19 02:20:57;;;;;;;5.10;3.95;;;25.70;99.90;;;;;;5066272;28;20570;-41
2022/08/19 02:23:24;;;;;;;4.57;4.20;;;25.70;99.90;;;;;;5065787;28;20681;-41
2022/08/19 02:25:52;;;;;;;4.72;3.70;;;25.70;99.90;;;;;;5068355;28;20217;-42
2022/08/19 02:28:19;;;;;;;3.92;3.58;;;25.70;99.90;;;;;;5068604;28;20633;-41
2022/08/19 02:30:49;;;;;;;3.97;3.63;;;25.70;99.90;;;;;;5063329;28;20270;-40
2022/08/19 02:33:17;;;;;;;3.92;3.70;;;25.70;99.90;;;;;;5067693;28;20177;-42
2022/08/19 02:35:45;;;;;;;3.95;3.65;;;25.70;99.90;;;;;;5064940;28;20197;-41
2022/08/19 02:38:26;;;;;;;4.28;3.97;;;25.70;99.90;;;;;;5067555;28;20243;-42
2022/08/19 02:40:55;;;;;;;4.40;4.00;;;25.70;99.90;;;;;;5063651;28;20527;-40
2022/08/19 02:43:23;;;;;;;4.30;4.00;;;25.60;99.90;;;;;;5066137;28;20242;-40
2022/08/19 02:45:52;;;;;;;3.95;3.65;;;25.50;99.90;;;;;;5069613;28;20204;-41
2022/08/19 02:48:20;;;;;;;4.32;3.90;;;25.50;99.90;;;;;;5067313;28;20268;-41
2022/08/19 02:50:51;;;;;;;4.20;3.75;;;25.40;99.90;;;;;;5064700;28;20300;-44
2022/08/19 02:53:18;;;;;;;6.50;4.20;;;25.40;99.90;;;;;;5067600;28;20633;-41
2022/08/19 02:55:46;;;;;;;4.85;4.43;;;25.40;99.90;;;;;;5065820;28;20663;-41
2022/08/19 02:58:14;;;;;;;5.40;3.65;;;25.40;99.90;;;;;;5066159;28;20280;-41
2022/08/19 03:00:46;;;;;;;5.57;4.35;;;25.40;99.90;;;;;;5064498;28;20281;-41
2022/08/19 03:03:15;;;;;;;4.28;3.97;;;25.40;99.90;;;;;;5066329;28;20248;-41
2022/08/19 03:05:42;;;;;;;5.50;3.40;;;25.40;99.90;;;;;;5063867;28;20216;-40
2022/08/19 03:08:12;;;;;;;4.25;3.75;;;25.40;99.90;;;;;;5066648;28;20583;-40
2022/08/19 03:10:45;;;;;;;6.15;4.10;;;25.30;99.90;;;;;;5066185;28;20322;-41
2022/08/19 03:13:14;;;;;;;9.02;5.05;;;25.30;99.90;;;;;;5067251;28;20291;-42
2022/08/19 03:15:43;;;;;;;5.53;5.00;;;25.30;99.90;;;;;;5066778;28;20197;-41
2022/08/19 03:18:10;;;;;;;5.32;4.93;;;25.30;99.90;;;;;;5065287;28;20201;-44
2022/08/19 03:20:44;;;;;;;5.07;4.43;;;25.30;99.90;;;;;;5066137;28;20280;-41
2022/08/19 03:23:12;;;;;;;6.65;5.20;;;25.30;99.90;;;;;;5069633;28;20303;-41
2022/08/19 03:25:42;;;;;;;8.35;5.82;;;25.30;99.90;;;;;;5069343;28;20194;-41
2022/08/19 03:28:11;;;;;;;5.70;5.20;;;25.30;99.90;;;;;;5068563;28;20268;-41
2022/08/19 03:30:40;;;;;;;4.18;3.88;;;25.30;99.90;;;;;;5066995;28;20259;-42
2022/08/19 03:33:08;;;;;;;4.53;4.13;;;25.30;99.90;;;;;;5066472;28;20712;-41
2022/08/19 03:35:36;;;;;;;8.15;4.47;;;25.30;99.90;;;;;;5066239;28;20258;-43
2022/08/19 03:38:05;;;;;;;4.93;4.40;;;25.30;99.90;;;;;;5066183;28;20232;-44
2022/08/19 03:40:34;;;;;;;4.10;3.70;;;25.20;99.90;;;;;;5063160;28;20192;-41
2022/08/19 03:43:02;;;;;;;4.55;4.15;;;25.20;99.90;;;;;;5066561;28;20258;-43
2022/08/19 03:45:29;;;;;;;4.55;4.15;;;25.20;99.90;;;;;;5064118;28;20193;-41
2022/08/19 03:47:56;;;;;;;4.43;4.07;;;25.20;99.90;;;;;;5067365;28;20280;-40
2022/08/19 03:50:24;;;;;;;4.63;4.22;;;25.20;99.90;;;;;;5063842;28;20221;-53
2022/08/19 03:52:51;;;;;;;4.80;4.40;;;25.20;99.90;;;;;;5063788;28;20197;-42
2022/08/19 03:55:20;;;;;;;4.30;4.00;;;25.20;99.90;;;;;;5062047;28;20221;-42
2022/08/19 03:57:48;;;;;;;3.90;3.60;;;25.20;99.90;;;;;;5066797;28;20225;-41
2022/08/19 04:00:16;;;;;;;6.88;6.00;;;25.20;99.90;;;;;;5061833;28;20645;-41
2022/08/19 04:02:43;;;;;;;4.53;4.22;;;25.10;99.90;;;;;;5065207;28;20193;-40
2022/08/19 04:05:10;;;;;;;4.97;4.15;;;25.10;99.90;;;;;;5064164;28;20185;-40
2022/08/19 04:07:37;;;;;;;4.28;3.85;;;25.20;99.90;;;;;;5062974;28;20201;-40
2022/08/19 04:10:05;;;;;;;4.65;3.85;;;25.20;99.90;;;;;;5065490;28;20228;-40
2022/08/19 04:12:34;;;;;;;3.53;3.33;;;25.20;99.90;;;;;;5061855;28;20233;-40
2022/08/19 04:15:01;;;;;;;3.97;3.67;;;25.20;99.90;;;;;;5062279;28;20190;-40
2022/08/19 04:17:28;;;;;;;4.65;4.25;;;25.20;99.90;;;;;;5064983;28;20282;-40
2022/08/19 04:19:55;;;;;;;6.38;5.20;;;25.20;99.90;;;;;;5064153;28;20648;-40
2022/08/19 04:22:22;;;;;;;4.57;4.20;;;25.20;99.90;;;;;;5063753;28;20509;-41
2022/08/19 04:24:49;;;;;;;4.50;4.10;;;25.30;99.90;;;;;;5068415;28;20221;-41
2022/08/19 04:27:16;;;;;;;4.22;3.70;;;25.30;99.90;;;;;;5064679;28;20212;-41
2022/08/19 04:29:44;;;;;;;3.67;3.38;;;25.30;99.90;;;;;;5066270;28;20202;-45
2022/08/19 04:32:14;;;;;;;4.85;3.72;;;25.30;99.90;;;;;;5065978;28;20185;-42
2022/08/19 04:34:42;;;;;;;4.25;3.95;;;25.30;99.90;;;;;;5065532;28;20561;-41
2022/08/19 04:37:13;;;;;;;3.78;3.47;;;25.30;99.90;;;;;;5064675;28;20190;-41
2022/08/19 04:42:40;;;;;;;4.80;4.47;;;25.30;99.90;;;;;;5061568;28;20263;-42
2022/08/19 04:45:11;;;;;;;4.25;3.70;;;25.30;99.90;;;;;;5063916;28;20209;-41
2022/08/19 04:47:39;;;;;;;5.07;4.57;;;25.30;99.90;;;;;;5063173;28;20198;-41
2022/08/19 04:50:08;;;;;;;4.70;4.28;;;25.30;99.90;;;;;;5065788;28;20248;-42
2022/08/19 04:52:35;;;;;;;5.20;4.80;;;25.40;99.90;;;;;;5067407;28;20189;-41
2022/08/19 04:55:03;;;;;;;5.35;4.85;;;25.40;99.90;;;;;;5071863;28;20227;-41
2022/08/19 04:57:30;;;;;;;4.85;4.45;;;25.40;99.90;;;;;;5066978;28;20309;-41
2022/08/19 04:59:57;;;;;;;5.13;4.65;;;25.50;99.90;;;;;;5067377;28;20197;-42
2022/08/19 05:02:26;;;;;;;4.40;4.00;;;25.50;99.90;;;;;;5065940;28;20221;-42
2022/08/19 05:04:58;;;;;;;4.03;3.70;;;25.60;99.90;;;;;;5067536;28;20304;-41
2022/08/19 05:07:26;;;;;;;4.03;3.72;;;25.60;99.90;;;;;;5067094;28;20190;-41
2022/08/19 05:09:53;;;;;;;3.20;3.00;;;25.60;99.90;;;;;;5070390;28;20227;-42
2022/08/19 05:12:20;;;;;;;3.97;3.60;;;25.60;99.90;;;;;;5065828;28;20325;-40
2022/08/19 05:14:47;;;;;;;4.55;4.18;;;25.60;99.90;;;;;;5067305;28;20213;-42
2022/08/19 05:17:14;;;;;;;3.92;3.60;;;25.60;99.90;;;;;;5067777;28;20198;-40
2022/08/19 05:22:35;;;;;;;3.40;3.20;;;25.60;99.90;;;;;;5070201;28;20335;-40
2022/08/19 05:25:08;;;;;;;2.83;2.63;;;25.60;99.90;;;;;;5066429;28;20216;-46
2022/08/19 05:27:35;;;;;;;4.28;3.58;;;25.60;99.90;;;;;;5069041;28;20526;-48
2022/08/19 05:30:02;;;;;;;3.17;2.97;;;25.60;99.90;;;;;;5067516;28;20194;-43
2022/08/19 05:32:29;;;;;;;2.65;2.45;;;25.60;99.90;;;;;;5066774;28;20193;-43
2022/08/19 05:34:58;;;;;;;5.03;4.25;;;25.60;99.90;;;;;;5062448;28;20280;-42
2022/08/19 05:37:27;;;;;;;6.15;4.82;;;25.60;99.90;;;;;;5067897;28;20280;-47
2022/08/19 05:39:55;;;;;;;6.88;6.00;;;25.70;99.90;;;;;;5065331;28;20222;-43
2022/08/19 05:42:23;;;;;;;4.25;3.95;;;25.70;99.90;;;;;;5069168;28;20247;-42
2022/08/19 05:44:50;;;;;;;5.22;4.72;;;25.70;99.90;;;;;;5066427;28;20312;-50
2022/08/19 05:47:19;;;;;;;3.85;3.55;;;25.80;99.90;;;;;;5068804;28;20724;-45
2022/08/19 05:49:46;;;;;;;3.83;3.60;;;25.80;99.90;;;;;;5068238;28;20196;-49
2022/08/19 05:52:16;;;;;;;3.20;3.00;;;25.80;99.90;;;;;;5069082;28;20246;-46
2022/08/19 05:54:44;;;;;;;3.90;3.60;;;25.80;99.90;;;;;;5069580;28;20261;-42
2022/08/19 05:57:11;;;;;;;5.28;4.78;;;25.80;99.90;;;;;;5063786;28;20205;-43
2022/08/19 05:59:38;;;;;;;9.50;5.53;;;25.80;99.90;;;;;;5068015;28;20254;-41
2022/08/19 06:02:07;;;;;;;8.35;6.05;;;25.80;99.90;;;;;;5064978;28;20265;-41
2022/08/19 06:04:35;;;;;;;8.18;6.28;;;25.90;99.90;;;;;;5066842;28;20213;-45
2022/08/19 06:07:02;;;;;;;6.85;5.70;;;25.90;99.90;;;;;;5066276;28;20544;-45
2022/08/19 06:09:33;;;;;;;8.02;6.35;;;25.90;99.90;;;;;;5066674;28;20193;-43
2022/08/19 06:12:02;;;;;;;5.18;4.78;;;26.10;99.90;;;;;;5064967;28;20191;-42
2022/08/19 06:14:32;;;;;;;6.25;5.63;;;26.00;99.90;;;;;;5068693;28;20206;-43
2022/08/19 06:17:01;;;;;;;8.15;5.88;;;26.10;99.90;;;;;;5067138;28;20246;-42
2022/08/19 06:19:30;;;;;;;5.38;4.90;;;26.10;99.90;;;;;;5066000;28;20286;-44
2022/08/19 06:21:59;;;;;;;4.88;4.47;;;26.20;99.90;;;;;;5066040;28;20198;-41
2022/08/19 06:24:27;;;;;;;4.10;3.80;;;26.20;99.90;;;;;;5070964;28;20213;-42
2022/08/19 06:26:57;;;;;;;6.20;3.75;;;26.30;99.90;;;;;;5070106;28;20673;-42
2022/08/19 06:29:26;;;;;;;6.07;4.72;;;26.30;99.90;;;;;;5068110;28;20197;-42
2022/08/19 06:31:56;;;;;;;5.47;3.67;;;26.30;99.90;;;;;;5069266;28;20211;-41
2022/08/19 06:34:23;;;;;;;4.15;3.83;;;26.30;99.90;;;;;;5068621;28;20190;-43
2022/08/19 06:36:52;;;;;;;3.50;3.30;;;26.40;99.90;;;;;;5067364;28;20243;-41
2022/08/19 06:39:22;;;;;;;3.88;3.42;;;26.40;99.90;;;;;;5067815;28;20369;-41
2022/08/19 06:41:50;;;;;;;3.78;3.58;;;26.50;99.90;;;;;;5067524;28;20225;-41
2022/08/19 06:44:20;;;;;;;3.05;2.88;;;26.50;99.90;;;;;;5068987;28;20221;-41
2022/08/19 06:46:48;;;;;;;6.60;5.15;;;26.60;99.90;;;;;;5070184;28;20243;-43
2022/08/19 06:49:15;;;;;;;5.55;5.05;;;26.60;99.90;;;;;;5066678;28;20197;-42
2022/08/19 06:51:44;;;;;;;4.35;4.07;;;26.70;99.90;;;;;;5066958;28;20240;-43
2022/08/19 06:54:11;;;;;;;4.43;4.03;;;26.70;99.90;;;;;;5068663;28;20217;-41
2022/08/19 06:56:39;;;;;;;3.85;3.55;;;26.70;99.90;;;;;;5066948;28;20228;-41
2022/08/19 06:59:09;;;;;;;3.47;2.70;;;26.80;99.90;;;;;;5067211;28;20549;-41
2022/08/19 07:01:39;;;;;;;2.60;2.50;;;26.90;99.90;;;;;;5066170;28;20553;-40
2022/08/19 07:04:08;;;;;;;4.60;3.60;;;27.00;99.90;;;;;;5068415;28;20229;-41
2022/08/19 07:06:36;;;;;;;4.30;3.90;;;27.00;99.90;;;;;;5066958;28;20552;-40
2022/08/19 07:09:04;;;;;;;3.80;3.60;;;27.10;99.90;;;;;;5067192;28;20193;-40
2022/08/19 07:11:32;;;;;;;4.40;4.10;;;27.20;99.90;;;;;;5063235;28;20211;-40
2022/08/19 07:13:59;;;;;;;3.95;3.75;;;27.20;99.90;;;;;;5065351;28;20279;-44
2022/08/19 07:16:27;;;;;;;5.88;5.28;;;27.20;99.90;;;;;;5064845;28;20282;-42
2022/08/19 07:18:56;;;;;;;5.10;4.70;;;27.30;99.90;;;;;;5065925;28;20276;-47
2022/08/19 07:21:27;;;;;;;6.68;5.22;;;27.30;99.90;;;;;;5067721;28;20216;-42
2022/08/19 07:23:56;;;;;;;6.45;4.72;;;27.40;99.90;;;;;;5066962;28;20195;-41
2022/08/19 07:26:25;;;;;;;4.70;4.30;;;27.40;99.90;;;;;;5067662;28;20197;-41
2022/08/19 07:28:53;;;;;;;4.65;4.22;;;27.50;99.90;;;;;;5067310;28;20680;-41
2022/08/19 07:31:22;;;;;;;6.15;5.03;;;27.60;99.90;;;;;;5066315;28;20284;-41
2022/08/19 07:33:52;;;;;;;5.90;5.40;;;27.60;99.90;;;;;;5063500;28;20200;-42
2022/08/19 07:36:23;;;;;;;7.57;5.57;;;27.70;99.90;;;;;;5067933;28;20190;-48
2022/08/19 07:38:53;;;;;;;6.03;5.15;;;27.70;99.90;;;;;;5066668;28;20661;-41
2022/08/19 07:41:24;;;;;;;5.53;5.07;;;27.80;99.90;;;;;;5064323;28;20198;-41
2022/08/19 07:43:53;;;;;;;5.32;4.93;;;27.80;99.90;;;;;;5062407;28;20232;-41
2022/08/19 07:46:21;;;;;;;5.93;5.43;;;27.90;99.90;;;;;;5061942;28;20607;-42
2022/08/19 07:48:50;;;;;;;6.95;5.13;;;27.90;99.90;;;;;;5067900;28;20224;-41
2022/08/19 07:51:21;;;;;;;5.00;4.45;;;28.00;99.90;;;;;;5063627;28;20976;-48
2022/08/19 07:53:49;;;;;;;8.38;4.93;;;28.10;99.90;;;;;;5065089;28;20629;-42
2022/08/19 07:56:17;;;;;;;8.32;5.70;;;28.10;99.90;;;;;;5062976;28;20263;-49
2022/08/19 07:58:47;;;;;;;6.13;5.45;;;28.20;99.90;;;;;;5065540;28;20221;-47
2022/08/19 08:01:17;;;;;;;7.25;5.32;;;28.20;99.90;;;;;;5067103;28;20595;-47
2022/08/19 08:09:21;;;;;;;4.15;3.92;;;28.40;99.90;;;;;;5066841;28;20189;-45
2022/08/19 08:11:52;;;;;;;4.35;3.95;;;28.40;99.90;;;;;;5067827;28;20267;-44
2022/08/19 08:14:22;;;;;;;5.32;4.90;;;28.50;99.90;;;;;;5063159;28;20225;-40
2022/08/19 08:16:50;;;;;;;8.07;5.18;;;28.50;99.90;;;;;;5064881;28;20205;-40
2022/08/19 08:19:19;;;;;;;15.05;8.88;;;28.60;99.90;;;;;;5063989;28;20336;-42
2022/08/19 08:21:48;;;;;;;8.40;5.88;;;28.70;99.90;;;;;;5064436;28;20204;-41
2022/08/19 08:24:16;;;;;;;6.00;5.40;;;28.80;99.80;;;;;;5063363;28;20198;-42
2022/08/19 08:26:43;;;;;;;6.38;4.65;;;28.80;99.80;;;;;;5068478;28;20201;-40
2022/08/19 08:29:12;;;;;;;5.22;4.72;;;28.90;99.60;;;;;;5073380;28;20557;-41
2022/08/19 08:31:40;;;;;;;6.00;4.25;;;28.90;99.30;;;;;;5071571;28;20197;-41
2022/08/19 08:34:08;;;;;;;4.07;3.78;;;28.90;98.90;;;;;;5072995;28;20201;-41
2022/08/19 08:36:40;;;;;;;5.32;4.85;;;29.00;98.90;;;;;;5073593;28;20216;-40
2022/08/19 08:39:10;;;;;;;7.45;4.95;;;29.00;98.00;;;;;;5068858;28;20292;-40
2022/08/19 08:41:46;;;;;;;6.25;4.35;;;29.00;97.90;;;;;;5071735;28;20201;-40
2022/08/19 08:44:18;;;;;;;8.75;4.93;;;29.00;97.80;;;;;;5068521;28;20224;-40
2022/08/19 08:46:49;;;;;;;7.70;4.68;;;29.10;97.90;;;;;;5067147;28;20276;-40
2022/08/19 08:49:30;;;;;;;4.60;4.13;;;29.10;97.80;;;;;;5072151;28;20220;-42
2022/08/19 08:52:02;;;;;;;5.40;3.92;;;29.10;97.40;;;;;;5070789;28;20302;-43
2022/08/19 08:54:36;;;;;;;5.93;3.97;;;29.10;97.50;;;;;;5071096;28;20240;-42
2022/08/19 08:57:07;;;;;;;7.47;4.35;;;29.20;97.70;;;;;;5069048;28;20300;-48
2022/08/19 08:59:37;;;;;;;13.98;8.85;;;29.30;97.70;;;;;;5071842;28;20661;-41
2022/08/19 09:02:05;;;;;;;9.38;6.10;;;29.30;97.00;;;;;;5065147;28;20194;-41
2022/08/19 09:04:32;;;;;;;4.40;4.00;;;29.40;96.90;;;;;;5068541;28;20340;-43
2022/08/19 09:07:22;;;;;;;4.75;4.45;;;29.40;96.50;;;;;;5069683;28;20692;-44
2022/08/19 09:09:53;;;;;;;5.95;4.20;;;29.50;96.30;;;;;;5068925;28;20193;-45
2022/08/19 09:12:34;;;;;;;9.02;4.28;;;29.60;96.00;;;;;;5064100;28;20228;-41
2022/08/19 09:15:05;;;;;;;6.00;4.53;;;29.70;95.60;;;;;;5068237;28;20196;-41
2022/08/19 09:17:33;;;;;;;7.38;4.57;;;29.80;95.00;;;;;;5071969;28;20193;-45
2022/08/19 09:20:07;;;;;;;5.13;4.63;;;29.80;94.80;;;;;;5071889;28;20195;-42
2022/08/19 09:22:34;;;;;;;5.72;4.47;;;29.80;94.40;;;;;;5070223;28;20208;-44
2022/08/19 09:25:04;;;;;;;4.60;4.20;;;29.90;94.40;;;;;;5072457;28;20205;-41
2022/08/19 09:27:31;;;;;;;5.00;3.92;;;29.90;94.50;;;;;;5072864;28;20189;-43
2022/08/19 09:29:59;;;;;;;4.65;4.25;;;30.00;94.30;;;;;;5072372;28;21087;-41
2022/08/19 09:32:27;;;;;;;5.63;4.32;;;30.00;94.40;;;;;;5071590;28;20194;-42
2022/08/19 09:34:54;;;;;;;7.47;4.35;;;30.10;94.30;;;;;;5068925;28;20190;-40
2022/08/19 09:37:22;;;;;;;6.57;4.63;;;30.10;94.10;;;;;;5065890;28;20198;-41
2022/08/19 09:39:49;;;;;;;5.97;4.88;;;30.20;93.80;;;;;;5062487;28;20202;-41
2022/08/19 09:42:18;;;;;;;4.70;4.32;;;30.20;93.30;;;;;;5066672;28;20198;-42
2022/08/19 09:44:45;;;;;;;5.07;4.28;;;30.20;93.20;;;;;;5068220;28;20215;-42
2022/08/19 09:47:13;;;;;;;5.57;5.07;;;30.30;93.20;;;;;;5068313;28;20258;-42
2022/08/19 09:49:41;;;;;;;5.03;4.53;;;30.30;93.20;;;;;;5063765;28;20203;-41
2022/08/19 09:52:10;;;;;;;6.45;4.47;;;30.30;93.50;;;;;;5065970;28;20280;-43
2022/08/19 09:54:37;;;;;;;5.63;4.30;;;30.40;93.60;;;;;;5067565;28;20200;-50
2022/08/19 09:57:04;;;;;;;5.07;4.63;;;30.40;93.40;;;;;;5063670;28;20282;-46
2022/08/19 09:59:33;;;;;;;13.65;7.45;;;30.50;93.20;;;;;;5067131;28;20225;-43
2022/08/19 10:02:00;;;;;;;8.18;5.30;;;30.60;92.10;;;;;;5066926;28;20197;-50
2022/08/19 10:05:47;;;;;;;4.47;4.07;;;30.60;91.90;;;;;;5063985;28;20613;-44
2022/08/19 10:07:15;;;;;;;5.55;4.13;;;30.70;91.50;;;;;;5065017;28;20193;-43
2022/08/19 10:09:42;;;;;;;7.47;4.80;;;30.80;90.90;;;;;;5066011;28;20289;-45
2022/08/19 10:12:09;;;;;;;5.05;4.57;;;30.90;90.70;;;;;;5062784;28;20257;-41
2022/08/19 10:14:39;;;;;;;6.03;4.35;;;31.00;90.50;;;;;;5066988;28;20195;-43
2022/08/19 10:17:06;;;;;;;4.70;4.30;;;31.10;90.20;;;;;;5065753;28;20201;-43
2022/08/19 10:19:35;;;;;;;5.53;4.65;;;31.20;89.50;;;;;;5065274;28;20354;-42
2022/08/19 10:22:05;;;;;;;7.47;3.80;;;31.30;87.50;;;;;;5063236;28;20713;-42
2022/08/19 10:24:33;;;;;;;5.55;4.28;;;31.40;87.70;;;;;;5068826;28;20205;-42
2022/08/19 10:27:03;;;;;;;4.43;4.03;;;31.40;87.30;;;;;;5068078;28;20691;-43
2022/08/19 10:29:31;;;;;;;5.60;4.80;;;31.40;86.80;;;;;;5069255;28;20597;-42
2022/08/19 10:32:00;;;;;;;6.20;4.28;;;31.40;86.50;;;;;;5066758;28;20379;-45
2022/08/19 10:34:30;;;;;;;9.43;5.05;;;31.40;86.30;;;;;;5066945;28;20277;-42
2022/08/19 10:37:00;;;;;;;5.82;4.45;;;31.30;84.70;;;;;;5067895;28;20209;-53
2022/08/19 10:39:29;;;;;;;5.22;4.35;;;31.20;84.40;;;;;;5067166;28;20266;-45
2022/08/19 10:41:56;;;;;;;4.15;3.85;;;31.20;84.50;;;;;;5066284;28;20593;-48
2022/08/19 10:44:24;;;;;;;7.88;4.43;;;31.20;85.10;;;;;;5066193;28;20197;-48
2022/08/19 10:46:51;;;;;;;7.63;3.92;;;31.20;85.60;;;;;;5065349;28;20243;-41
2022/08/19 10:49:20;;;;;;;4.75;4.10;;;31.20;85.70;;;;;;5064562;28;20675;-44
2022/08/19 10:57:15;;;;;;;26.40;4.30;;;31.40;84.70;;;;;;5066902;28;20212;-57
2022/08/19 10:59:42;;;;;;;5.75;5.25;;;31.50;84.40;;;;;;5065838;28;20216;-59
2022/08/19 11:02:11;;;;;;;8.93;5.80;;;31.60;83.30;;;;;;5065217;28;20623;-59
2022/08/19 11:04:41;;;;;;;5.20;4.70;;;31.60;84.20;;;;;;5062206;28;20289;-59
2022/08/19 11:07:08;;;;;;;4.32;3.92;;;31.70;84.50;;;;;;5065354;28;20292;-59
2022/08/19 11:09:40;;;;;;;7.35;4.65;;;31.80;83.70;;;;;;5063579;28;20197;-59
2022/08/19 11:12:09;;;;;;;5.57;4.13;;;31.90;83.60;;;;;;5066627;28;20244;-59
2022/08/19 11:14:37;;;;;;;6.72;4.95;;;31.90;83.10;;;;;;5065692;28;20703;-59
2022/08/19 11:17:05;;;;;;;5.47;4.55;;;32.00;83.00;;;;;;5062818;28;20221;-59
2022/08/19 11:19:33;;;;;;;5.10;4.60;;;32.10;83.10;;;;;;5066312;28;20275;-59
2022/08/19 11:22:03;;;;;;;4.45;4.05;;;32.10;81.30;;;;;;5061189;28;20279;-59
2022/08/19 11:24:31;;;;;;;8.35;4.80;;;32.20;80.40;;;;;;5068402;28;20217;-59
2022/08/19 11:27:04;;;;;;;4.68;4.20;;;32.20;80.20;;;;;;5062436;28;20698;-59
2022/08/19 11:29:34;;;;;;;5.68;4.40;;;32.20;80.10;;;;;;5063490;28;20283;-59
2022/08/19 11:32:03;;;;;;;4.90;4.50;;;32.20;79.70;;;;;;5067036;28;20272;-59
2022/08/19 11:34:30;;;;;;;6.93;4.63;;;32.30;80.00;;;;;;5067640;28;20236;-60
2022/08/19 11:36:59;;;;;;;5.75;4.38;;;32.40;80.40;;;;;;5065478;28;20212;-59
2022/08/19 11:39:30;;;;;;;7.20;5.18;;;32.40;80.40;;;;;;5067912;28;20204;-59
2022/08/19 11:41:58;;;;;;;5.88;4.80;;;32.50;79.90;;;;;;5063918;28;20312;-59
2022/08/19 11:44:26;;;;;;;5.90;5.00;;;32.50;79.80;;;;;;5066225;28;20295;-59
2022/08/19 11:46:53;;;;;;;8.70;4.63;;;32.60;79.80;;;;;;5064442;28;20213;-59
2022/08/19 11:49:20;;;;;;;5.25;4.60;;;32.70;79.80;;;;;;5066417;28;20201;-59
2022/08/19 11:51:49;;;;;;;12.55;4.28;;;32.70;78.90;;;;;;5067345;28;20193;-59
2022/08/19 11:54:18;;;;;;;5.05;4.57;;;32.70;78.30;;;;;;5065568;28;20204;-59
2022/08/19 11:56:48;;;;;;;4.65;4.22;;;32.70;78.50;;;;;;5064325;28;20269;-59
2022/08/19 11:59:16;;;;;;;7.93;4.57;;;32.70;78.50;;;;;;5065607;28;21724;-59
2022/08/19 12:01:43;;;;;;;7.43;5.40;;;32.70;78.50;;;;;;5065188;28;20201;-59
2022/08/19 12:04:11;;;;;;;7.53;5.13;;;32.70;78.30;;;;;;5063506;28;20193;-59
2022/08/19 12:06:40;;;;;;;5.43;4.93;;;32.70;78.10;;;;;;5066950;28;20248;-59
2022/08/19 12:09:09;;;;;;;7.72;5.20;;;32.70;78.00;;;;;;5062640;28;20190;-59
2022/08/19 12:11:37;;;;;;;8.85;5.30;;;32.50;78.40;;;;;;5057525;28;20269;-59
2022/08/19 12:14:06;;;;;;;7.28;4.90;;;32.50;79.20;;;;;;5061036;28;20694;-59
2022/08/19 12:16:34;;;;;;;6.00;4.45;;;32.50;78.50;;;;;;5065012;28;20327;-59
2022/08/19 12:19:03;;;;;;;16.38;6.68;;;32.50;78.10;;;;;;5065198;28;20225;-59
2022/08/19 12:21:33;;;;;;;5.85;4.88;;;32.60;78.00;;;;;;5064007;28;20284;-59
2022/08/19 12:24:02;;;;;;;7.93;5.10;;;32.60;78.10;;;;;;5064180;28;20243;-59
2022/08/19 12:26:31;;;;;;;6.20;4.47;;;32.50;76.00;;;;;;5063121;28;20311;-59
2022/08/19 12:28:59;;;;;;;11.63;6.10;;;32.60;76.10;;;;;;5063565;28;20197;-59
2022/08/19 12:31:28;;;;;;;11.32;5.68;;;32.70;76.10;;;;;;5064163;28;20528;-59
2022/08/19 12:33:55;;;;;;;5.18;4.35;;;32.70;76.10;;;;;;5062382;28;20193;-59
2022/08/19 12:36:22;;;;;;;8.15;4.65;;;32.70;75.70;;;;;;5063999;28;20660;-59
2022/08/19 12:38:50;;;;;;;5.75;4.63;;;32.80;75.00;;;;;;5063137;28;20197;-59
2022/08/19 12:41:18;;;;;;;5.20;4.80;;;32.90;74.60;;;;;;5063681;28;20220;-59
2022/08/19 12:43:45;;;;;;;5.57;4.80;;;32.90;74.40;;;;;;5064966;28;20204;-59
2022/08/19 12:46:13;;;;;;;4.82;4.30;;;33.00;73.60;;;;;;5063624;28;20284;-59
2022/08/19 12:48:44;;;;;;;4.78;4.38;;;33.00;73.10;;;;;;5064381;28;20673;-59
2022/08/19 12:51:15;;;;;;;6.22;4.65;;;33.00;72.60;;;;;;5062973;28;20208;-59
2022/08/19 12:53:43;;;;;;;5.22;4.50;;;33.10;71.50;;;;;;5063622;28;20544;-60
2022/08/19 12:56:14;;;;;;;9.93;4.40;;;33.10;71.50;;;;;;5065187;28;20193;-58
2022/08/19 12:58:44;;;;;;;5.95;4.35;;;33.20;71.50;;;;;;5059720;28;20602;-58
2022/08/19 13:01:12;;;;;;;9.80;4.63;;;33.20;71.70;;;;;;5062787;28;20190;-57
2022/08/19 13:03:40;;;;;;;6.22;4.07;;;33.30;71.20;;;;;;5063866;28;20640;-58
2022/08/19 13:06:09;;;;;;;5.53;4.88;;;33.30;70.60;;;;;;5062544;28;20271;-58
2022/08/19 13:08:38;;;;;;;14.90;4.63;;;33.30;69.60;;;;;;5057522;28;20254;-58
2022/08/19 13:11:11;;;;;;;5.07;4.57;;;33.30;69.40;;;;;;5066268;28;20486;-58